createdAt,value
2023-04-08T00:01:43.041Z,7.75
2023-04-08T00:04:10.099Z,8.13
2023-04-08T00:06:37.376Z,7.40
2023-04-08T00:09:04.156Z,7.53
2023-04-08T00:11:30.906Z,7.57
2023-04-08T00:13:57.650Z,7.53
2023-04-08T00:16:24.413Z,8.45
2023-04-08T00:18:51.489Z,7.87
2023-04-08T00:21:20.713Z,7.88
2023-04-08T00:23:47.806Z,8.30
2023-04-08T00:26:14.523Z,8.65
2023-04-08T00:28:42.702Z,11.55
2023-04-08T00:31:09.863Z,8.73
2023-04-08T00:33:36.674Z,8.50
2023-04-08T00:36:03.534Z,8.27
2023-04-08T00:38:31.411Z,9.32
2023-04-08T00:40:58.609Z,8.73
2023-04-08T00:43:25.350Z,8.90
2023-04-08T00:45:52.054Z,9.05
2023-04-08T00:48:18.760Z,9.57
2023-04-08T00:50:47.046Z,10.27
2023-04-08T00:53:18.035Z,9.45
2023-04-08T00:55:44.706Z,9.50
2023-04-08T00:58:12.660Z,9.55
2023-04-08T01:00:43.288Z,9.35
2023-04-08T01:03:44.675Z,9.45
2023-04-08T01:06:21.904Z,9.73
2023-04-08T01:08:51.843Z,9.37
2023-04-08T01:11:20.151Z,9.43
2023-04-08T01:13:48.985Z,9.82
2023-04-08T01:16:17.382Z,9.25
2023-04-08T01:18:45.533Z,9.70
2023-04-08T01:21:15.988Z,9.80
2023-04-08T01:24:06.485Z,9.20
2023-04-08T01:26:33.582Z,9.63
2023-04-08T01:29:03.008Z,9.70
2023-04-08T01:31:31.790Z,9.35
2023-04-08T01:34:01.642Z,9.67
2023-04-08T01:36:29.983Z,10.65
2023-04-08T01:38:56.991Z,9.55
2023-04-08T01:41:24.069Z,9.48
2023-04-08T01:43:51.930Z,8.63
2023-04-08T01:46:20.778Z,8.30
2023-04-08T01:48:49.045Z,8.40
2023-04-08T01:51:17.237Z,8.40
2023-04-08T01:53:44.328Z,8.02
2023-04-08T01:56:13.405Z,8.27
2023-04-08T01:58:43.269Z,8.30
2023-04-08T02:01:16.412Z,8.00
2023-04-08T02:03:45.207Z,8.27
2023-04-08T02:06:11.903Z,8.25
2023-04-08T02:08:38.589Z,8.45
2023-04-08T02:11:05.555Z,8.23
2023-04-08T02:13:32.912Z,8.18
2023-04-08T02:16:23.005Z,8.98
2023-04-08T02:19:00.749Z,8.50
2023-04-08T02:21:34.239Z,9.40
2023-04-08T02:24:06.280Z,9.00
2023-04-08T02:26:36.217Z,9.45
2023-04-08T02:29:05.725Z,9.75
2023-04-08T02:31:34.375Z,8.93
2023-04-08T02:34:01.321Z,9.00
2023-04-08T02:36:28.140Z,8.50
2023-04-08T02:38:54.825Z,8.70
2023-04-08T02:41:21.663Z,8.50
2023-04-08T02:43:48.379Z,9.65
2023-04-08T02:46:15.619Z,9.27
2023-04-08T02:48:42.425Z,9.23
2023-04-08T02:51:09.096Z,9.05
2023-04-08T02:53:36.047Z,10.07
2023-04-08T02:56:02.777Z,10.70
2023-04-08T02:58:29.360Z,9.90
2023-04-08T03:00:56.206Z,9.53
2023-04-08T03:03:27.758Z,9.30
2023-04-08T03:05:54.771Z,9.00
2023-04-08T03:08:22.153Z,8.40
2023-04-08T03:10:49.346Z,8.73
2023-04-08T03:13:16.780Z,8.60
2023-04-08T03:15:43.496Z,8.40
2023-04-08T03:18:10.121Z,8.60
2023-04-08T03:20:36.763Z,8.63
2023-04-08T03:23:03.483Z,8.90
2023-04-08T03:25:30.187Z,8.70
2023-04-08T03:27:58.535Z,8.60
2023-04-08T03:30:25.413Z,9.20
2023-04-08T03:32:52.233Z,9.00
2023-04-08T03:35:19.039Z,8.88
2023-04-08T03:37:46.724Z,8.27
2023-04-08T03:40:13.368Z,9.02
2023-04-08T03:42:40.092Z,10.15
2023-04-08T03:45:07.361Z,10.65
2023-04-08T03:47:34.237Z,9.38
2023-04-08T03:50:00.872Z,8.17
2023-04-08T03:52:27.483Z,9.10
2023-04-08T03:54:54.161Z,8.15
2023-04-08T03:57:20.834Z,8.15
2023-04-08T03:59:47.538Z,8.48
2023-04-08T04:02:14.273Z,7.83
2023-04-08T04:04:40.987Z,10.63
2023-04-08T04:07:07.713Z,10.13
2023-04-08T04:09:34.405Z,10.63
2023-04-08T04:12:01.164Z,10.05
2023-04-08T04:14:27.843Z,10.20
2023-04-08T04:16:54.458Z,9.57
2023-04-08T04:19:21.104Z,10.45
2023-04-08T04:21:47.725Z,9.65
2023-04-08T04:24:14.385Z,9.93
2023-04-08T04:26:42.091Z,9.40
2023-04-08T04:29:08.754Z,9.73
2023-04-08T04:31:35.518Z,39.45
2023-04-08T04:34:02.209Z,13.02
2023-04-08T04:36:28.857Z,10.88
2023-04-08T04:38:56.766Z,10.23
2023-04-08T04:41:23.655Z,10.27
2023-04-08T04:43:50.533Z,10.27
2023-04-08T04:46:17.321Z,9.35
2023-04-08T04:48:44.069Z,10.15
2023-04-08T04:51:10.815Z,10.87
2023-04-08T04:53:37.488Z,10.40
2023-04-08T04:56:04.347Z,9.98
2023-04-08T04:58:31.679Z,9.10
2023-04-08T05:00:58.506Z,9.60
2023-04-08T05:03:25.396Z,9.80
2023-04-08T05:05:55.422Z,8.75
2023-04-08T05:08:22.340Z,9.40
2023-04-08T05:10:50.740Z,9.45
2023-04-08T05:13:18.400Z,9.55
2023-04-08T05:15:47.935Z,8.93
2023-04-08T05:18:14.838Z,9.32
2023-04-08T05:20:41.546Z,10.05
2023-04-08T05:23:08.825Z,9.07
2023-04-08T05:25:36.158Z,8.40
2023-04-08T05:28:03.158Z,8.07
2023-04-08T05:30:29.834Z,8.07
2023-04-08T05:32:59.379Z,7.75
2023-04-08T05:35:27.012Z,8.77
2023-04-08T05:37:53.939Z,13.18
2023-04-08T05:40:20.619Z,13.67
2023-04-08T05:42:47.262Z,12.55
2023-04-08T05:45:14.141Z,9.88
2023-04-08T05:47:41.087Z,9.75
2023-04-08T05:50:08.429Z,9.10
2023-04-08T05:52:35.386Z,10.20
2023-04-08T05:55:01.983Z,10.68
2023-04-08T05:57:28.667Z,9.90
2023-04-08T05:59:55.663Z,8.48
2023-04-08T06:02:22.374Z,8.45
2023-04-08T06:04:49.093Z,8.27
2023-04-08T06:07:15.811Z,8.07
2023-04-08T06:09:43.287Z,8.18
2023-04-08T06:12:11.562Z,7.68
2023-04-08T06:14:38.296Z,8.75
2023-04-08T06:17:05.170Z,8.23
2023-04-08T06:19:31.854Z,8.57
2023-04-08T06:21:59.093Z,9.60
2023-04-08T06:24:27.381Z,8.98
2023-04-08T06:26:54.273Z,8.95
2023-04-08T06:29:21.926Z,7.93
2023-04-08T06:31:49.386Z,7.70
2023-04-08T06:34:16.596Z,7.93
2023-04-08T06:36:43.330Z,7.60
2023-04-08T06:39:10.628Z,8.13
2023-04-08T06:41:37.370Z,7.63
2023-04-08T06:44:04.117Z,7.63
2023-04-08T06:46:30.811Z,8.02
2023-04-08T06:48:57.502Z,7.45
2023-04-08T06:51:24.179Z,7.30
2023-04-08T06:53:50.792Z,8.10
2023-04-08T06:56:17.434Z,7.80
2023-04-08T06:58:44.080Z,8.40
2023-04-08T07:01:11.151Z,8.40
2023-04-08T07:03:38.163Z,8.80
2023-04-08T07:06:05.236Z,9.90
2023-04-08T07:08:31.873Z,9.02
2023-04-08T07:10:58.541Z,10.13
2023-04-08T07:13:25.188Z,8.65
2023-04-08T07:15:52.458Z,10.90
2023-04-08T07:18:19.413Z,9.83
2023-04-08T07:20:51.138Z,8.65
2023-04-08T07:23:17.833Z,9.90
2023-04-08T07:25:44.441Z,10.43
2023-04-08T07:28:11.187Z,9.70
2023-04-08T07:30:37.941Z,11.47
2023-04-08T07:33:05.006Z,8.95
2023-04-08T07:35:31.982Z,10.23
2023-04-08T07:37:58.758Z,8.13
2023-04-08T07:40:25.767Z,7.82
2023-04-08T07:42:53.186Z,5.70
2023-04-08T07:45:20.332Z,6.70
2023-04-08T07:47:47.455Z,7.72
2023-04-08T07:50:14.268Z,8.18
2023-04-08T07:52:40.981Z,7.97
2023-04-08T07:55:08.116Z,8.20
2023-04-08T07:57:34.843Z,7.10
2023-04-08T08:00:01.734Z,6.13
2023-04-08T08:02:28.517Z,9.13
2023-04-08T08:04:55.454Z,6.00
2023-04-08T08:07:22.100Z,8.90
2023-04-08T08:09:49.199Z,9.48
2023-04-08T08:12:17.329Z,8.23
2023-04-08T08:14:44.060Z,6.30
2023-04-08T08:17:10.782Z,7.03
2023-04-08T08:19:37.424Z,6.53
2023-04-08T08:22:04.137Z,7.22
2023-04-08T08:24:31.042Z,7.03
2023-04-08T08:26:57.749Z,8.27
2023-04-08T08:29:24.397Z,6.78
2023-04-08T08:31:51.104Z,7.33
2023-04-08T08:34:17.789Z,7.35
2023-04-08T08:36:44.418Z,7.15
2023-04-08T08:39:11.086Z,6.65
2023-04-08T08:41:37.839Z,6.25
2023-04-08T08:44:09.964Z,7.03
2023-04-08T08:46:36.797Z,7.03
2023-04-08T08:49:03.566Z,6.47
2023-04-08T08:51:30.281Z,6.18
2023-04-08T08:53:56.934Z,6.70
2023-04-08T08:56:23.565Z,7.03
2023-04-08T08:58:50.336Z,7.00
2023-04-08T09:01:46.308Z,7.22
2023-04-08T09:04:19.873Z,6.50
2023-04-08T09:06:50.051Z,6.22
2023-04-08T09:09:17.583Z,6.00
2023-04-08T09:11:46.468Z,7.50
2023-04-08T09:14:21.488Z,7.07
2023-04-08T09:16:48.677Z,6.00
2023-04-08T09:19:15.565Z,6.07
2023-04-08T09:21:42.578Z,6.73
2023-04-08T09:24:11.038Z,6.05
2023-04-08T09:26:37.724Z,6.00
2023-04-08T09:29:25.000Z,5.65
2023-04-08T09:31:57.354Z,5.80
2023-04-08T09:34:24.517Z,5.90
2023-04-08T09:36:52.366Z,5.80
2023-04-08T09:39:19.561Z,6.18
2023-04-08T09:41:49.446Z,5.40
2023-04-08T09:44:17.101Z,5.72
2023-04-08T09:46:49.729Z,5.40
2023-04-08T09:49:25.499Z,5.25
2023-04-08T09:52:13.778Z,5.78
2023-04-08T09:55:01.521Z,5.07
2023-04-08T09:57:41.637Z,5.43
2023-04-08T10:00:14.136Z,4.87
2023-04-08T10:03:10.682Z,4.57
2023-04-08T10:05:40.804Z,5.18
2023-04-08T10:08:07.758Z,6.75
2023-04-08T10:10:40.757Z,4.78
2023-04-08T10:13:08.109Z,5.10
2023-04-08T10:15:36.922Z,5.60
2023-04-08T10:18:04.524Z,5.10
2023-04-08T10:20:34.051Z,5.03
2023-04-08T10:23:02.134Z,4.70
2023-04-08T10:25:32.726Z,4.60
2023-04-08T10:28:19.348Z,4.43
2023-04-08T10:30:46.961Z,3.90
2023-04-08T10:33:21.223Z,4.03
2023-04-08T10:35:49.772Z,4.50
2023-04-08T10:38:17.729Z,4.30
2023-04-08T10:40:45.920Z,5.13
2023-04-08T10:43:13.994Z,4.97
2023-04-08T10:45:41.791Z,5.40
2023-04-08T10:48:13.290Z,5.88
2023-04-08T10:50:40.952Z,5.87
2023-04-08T10:53:08.650Z,6.05
2023-04-08T10:55:35.553Z,6.28
2023-04-08T10:58:09.548Z,6.80
2023-04-08T11:00:38.499Z,6.30
2023-04-08T11:03:08.177Z,5.93
2023-04-08T11:05:37.132Z,6.43
2023-04-08T11:08:05.351Z,6.68
2023-04-08T11:10:37.577Z,6.40
2023-04-08T11:15:36.362Z,6.93
2023-04-08T11:18:04.905Z,7.13
2023-04-08T11:20:34.579Z,6.97
2023-04-08T11:23:01.172Z,6.43
2023-04-08T11:25:28.975Z,6.25
2023-04-08T11:27:55.852Z,6.40
2023-04-08T11:30:24.096Z,6.05
2023-04-08T11:32:52.168Z,6.53
2023-04-08T11:35:18.934Z,6.57
2023-04-08T11:37:47.737Z,6.70
2023-04-08T11:40:20.952Z,6.50
2023-04-08T11:42:48.506Z,6.82
2023-04-08T11:45:17.832Z,7.40
2023-04-08T11:47:45.832Z,7.32
2023-04-08T11:50:12.675Z,8.15
2023-04-08T11:52:47.900Z,8.03
2023-04-08T11:55:31.209Z,8.30
2023-04-08T11:58:06.218Z,8.90
2023-04-08T12:00:33.148Z,8.07
2023-04-08T12:02:59.998Z,8.70
2023-04-08T12:05:26.814Z,8.77
2023-04-08T12:07:53.488Z,8.63
2023-04-08T12:10:20.699Z,7.75
2023-04-08T12:12:48.673Z,8.10
2023-04-08T12:15:15.806Z,7.93
2023-04-08T12:17:43.780Z,8.10
2023-04-08T12:20:12.019Z,9.07
2023-04-08T12:22:39.269Z,9.82
2023-04-08T12:25:06.411Z,10.63
2023-04-08T12:27:36.461Z,11.13
2023-04-08T12:30:03.674Z,10.60
2023-04-08T12:32:30.442Z,10.48
2023-04-08T12:34:57.256Z,11.15
2023-04-08T12:37:24.269Z,11.30
2023-04-08T12:39:51.578Z,10.43
2023-04-08T12:42:18.303Z,10.00
2023-04-08T12:44:44.969Z,9.07
2023-04-08T12:47:11.726Z,9.27
2023-04-08T12:52:08.582Z,10.98
2023-04-08T12:54:35.257Z,11.30
2023-04-08T12:57:02.994Z,11.95
2023-04-08T12:59:29.770Z,11.90
2023-04-08T13:01:56.447Z,14.07
2023-04-08T13:04:23.122Z,13.05
2023-04-08T13:06:49.847Z,11.50
2023-04-08T13:09:16.631Z,13.63
2023-04-08T13:11:43.414Z,14.68
2023-04-08T13:14:10.062Z,11.95
2023-04-08T13:16:37.304Z,11.95
2023-04-08T13:19:04.025Z,12.70
2023-04-08T13:21:31.255Z,12.55
2023-04-08T13:23:57.982Z,13.57
2023-04-08T13:26:24.698Z,12.85
2023-04-08T13:28:57.203Z,12.82
2023-04-08T13:31:24.813Z,12.87
2023-04-08T13:33:51.547Z,12.00
2023-04-08T13:36:18.207Z,12.18
2023-04-08T13:38:46.078Z,12.77
2023-04-08T13:41:12.822Z,14.20
2023-04-08T13:43:39.965Z,12.43
2023-04-08T13:46:06.802Z,13.27
2023-04-08T13:48:33.528Z,14.05
2023-04-08T13:51:00.191Z,17.13
2023-04-08T13:53:27.133Z,19.42
2023-04-08T13:55:55.901Z,16.10
2023-04-08T13:58:24.300Z,17.23
2023-04-08T14:00:51.920Z,15.23
2023-04-08T14:03:19.333Z,14.82
2023-04-08T14:05:46.128Z,13.98
2023-04-08T14:08:13.788Z,15.23
2023-04-08T14:10:42.090Z,15.30
2023-04-08T14:13:09.212Z,15.30
2023-04-08T14:15:36.173Z,14.02
2023-04-08T14:18:03.247Z,14.65
2023-04-08T14:20:30.124Z,15.10
2023-04-08T14:22:57.000Z,15.40
2023-04-08T14:25:24.302Z,15.27
2023-04-08T14:27:58.331Z,15.55
2023-04-08T14:30:26.812Z,15.40
2023-04-08T14:32:53.967Z,14.70
2023-04-08T14:35:20.876Z,15.48
2023-04-08T14:37:47.607Z,16.05
2023-04-08T14:40:14.254Z,15.15
2023-04-08T14:42:41.373Z,14.30
2023-04-08T14:45:08.723Z,14.33
2023-04-08T14:47:35.622Z,14.68
2023-04-08T14:50:02.379Z,14.32
2023-04-08T14:52:29.105Z,15.48
2023-04-08T14:54:55.782Z,15.75
2023-04-08T14:57:22.502Z,14.80
2023-04-08T14:59:49.255Z,15.23
2023-04-08T15:02:16.093Z,16.05
2023-04-08T15:04:42.982Z,15.15
2023-04-08T15:07:09.727Z,15.77
2023-04-08T15:09:36.442Z,15.90
2023-04-08T15:12:03.222Z,15.18
2023-04-08T15:14:29.938Z,14.45
2023-04-08T15:16:56.648Z,15.30
2023-04-08T15:19:23.683Z,16.40
2023-04-08T15:21:50.333Z,16.30
2023-04-08T15:24:17.068Z,16.15
2023-04-08T15:26:43.730Z,15.65
2023-04-08T15:29:10.450Z,17.10
2023-04-08T15:31:37.342Z,14.32
2023-04-08T15:34:04.053Z,15.37
2023-04-08T15:36:30.818Z,16.05
2023-04-08T15:38:57.534Z,15.93
2023-04-08T15:41:24.379Z,19.38
2023-04-08T15:43:52.413Z,15.27
2023-04-08T15:46:20.501Z,15.07
2023-04-08T15:48:48.532Z,17.77
2023-04-08T15:51:16.625Z,14.80
2023-04-08T15:53:43.595Z,14.20
2023-04-08T15:56:14.948Z,13.65
2023-04-08T15:58:42.230Z,16.93
2023-04-08T16:01:09.116Z,15.88
2023-04-08T16:03:35.888Z,15.52
2023-04-08T16:06:03.023Z,17.98
2023-04-08T16:08:30.592Z,14.77
2023-04-08T16:11:02.717Z,14.97
2023-04-08T16:13:34.193Z,14.40
2023-04-08T16:16:04.239Z,14.48
2023-04-08T16:18:31.093Z,14.95
2023-04-08T16:20:57.967Z,15.50
2023-04-08T16:23:24.869Z,14.70
2023-04-08T16:25:52.056Z,14.60
2023-04-08T16:28:18.792Z,15.18
2023-04-08T16:30:47.664Z,16.10
2023-04-08T16:33:14.567Z,15.95
2023-04-08T16:35:41.264Z,15.27
2023-04-08T16:38:08.025Z,16.23
2023-04-08T16:40:35.174Z,17.15
2023-04-08T16:43:03.925Z,16.33
2023-04-08T16:45:32.518Z,16.83
2023-04-08T16:48:00.334Z,15.90
2023-04-08T16:50:28.503Z,16.50
2023-04-08T16:52:55.355Z,17.27
2023-04-08T16:55:22.069Z,17.58
2023-04-08T16:57:48.901Z,17.48
2023-04-08T17:00:17.949Z,15.73
2023-04-08T17:02:47.298Z,15.93
2023-04-08T17:05:14.149Z,16.00
2023-04-08T17:07:41.027Z,15.68
2023-04-08T17:10:08.547Z,16.60
2023-04-08T17:12:36.376Z,16.10
2023-04-08T17:15:03.723Z,16.88
2023-04-08T17:17:30.470Z,17.80
2023-04-08T17:19:57.204Z,16.42
2023-04-08T17:22:23.981Z,16.95
2023-04-08T17:24:50.792Z,16.87
2023-04-08T17:27:17.598Z,15.85
2023-04-08T17:29:44.621Z,16.00
2023-04-08T17:32:12.547Z,16.63
2023-04-08T17:34:40.915Z,17.30
2023-04-08T17:37:09.272Z,17.07
2023-04-08T17:39:40.623Z,17.17
2023-04-08T17:42:08.318Z,18.75
2023-04-08T17:44:35.243Z,17.00
2023-04-08T17:47:02.452Z,17.30
2023-04-08T17:49:29.998Z,16.70
2023-04-08T17:51:56.624Z,16.08
2023-04-08T17:54:24.346Z,16.13
2023-04-08T17:56:51.171Z,16.08
2023-04-08T17:59:17.994Z,16.23
2023-04-08T18:01:44.849Z,18.23
2023-04-08T18:04:12.496Z,17.70
2023-04-08T18:06:39.553Z,18.20
2023-04-08T18:09:06.212Z,16.73
2023-04-08T18:11:32.885Z,20.90
2023-04-08T18:13:59.635Z,17.43
2023-04-08T18:16:26.346Z,16.58
2023-04-08T18:18:53.004Z,16.35
2023-04-08T18:21:19.728Z,18.20
2023-04-08T18:23:49.201Z,17.60
2023-04-08T18:26:16.130Z,19.47
2023-04-08T18:28:42.876Z,19.35
2023-04-08T18:31:09.651Z,16.65
2023-04-08T18:33:36.730Z,17.55
2023-04-08T18:36:12.798Z,16.67
2023-04-08T18:38:41.159Z,15.90
2023-04-08T18:41:08.520Z,18.70
2023-04-08T18:43:35.257Z,16.88
2023-04-08T18:46:02.018Z,17.13
2023-04-08T18:48:28.761Z,19.13
2023-04-08T18:50:55.417Z,16.67
2023-04-08T18:53:22.567Z,18.13
2023-04-08T18:55:49.253Z,19.17
2023-04-08T18:58:15.937Z,19.10
2023-04-08T19:00:43.731Z,16.58
2023-04-08T19:03:10.942Z,18.00
2023-04-08T19:05:38.217Z,16.70
2023-04-08T19:08:05.838Z,16.60
2023-04-08T19:10:33.660Z,15.85
2023-04-08T19:13:01.321Z,16.30
2023-04-08T19:15:29.089Z,19.83
2023-04-08T19:17:56.439Z,17.60
2023-04-08T19:20:23.453Z,16.20
2023-04-08T19:22:50.371Z,16.38
2023-04-08T19:25:17.694Z,16.35
2023-04-08T19:27:46.012Z,16.13
2023-04-08T19:30:13.083Z,17.45
2023-04-08T19:32:39.855Z,25.92
2023-04-08T19:35:07.231Z,17.75
2023-04-08T19:37:33.900Z,23.90
2023-04-08T19:40:00.594Z,24.90
2023-04-08T19:42:27.282Z,20.73
2023-04-08T19:44:53.935Z,19.45
2023-04-08T19:47:22.071Z,15.70
2023-04-08T19:49:48.783Z,16.67
2023-04-08T19:52:15.399Z,17.57
2023-04-08T19:54:43.418Z,16.65
2023-04-08T19:57:10.904Z,16.98
2023-04-08T19:59:38.177Z,17.30
2023-04-08T20:02:05.087Z,17.52
2023-04-08T20:04:32.833Z,17.40
2023-04-08T20:07:03.581Z,17.33
2023-04-08T20:09:32.358Z,19.83
2023-04-08T20:12:06.396Z,17.45
2023-04-08T20:14:35.609Z,17.15
2023-04-08T20:17:02.723Z,15.97
2023-04-08T20:19:29.370Z,16.45
2023-04-08T20:21:57.313Z,22.23
2023-04-08T20:24:24.130Z,20.08
2023-04-08T20:26:50.874Z,18.98
2023-04-08T20:29:17.601Z,21.43
2023-04-08T20:31:47.125Z,23.27
2023-04-08T20:34:14.061Z,22.63
2023-04-08T20:36:41.187Z,21.05
2023-04-08T20:39:11.035Z,21.65
2023-04-08T20:41:38.377Z,19.80
2023-04-08T20:44:06.880Z,17.15
2023-04-08T20:46:35.150Z,18.60
2023-04-08T20:49:03.666Z,16.10
2023-04-08T20:51:31.369Z,15.68
2023-04-08T20:53:58.259Z,15.70
2023-04-08T20:56:26.378Z,15.93
2023-04-08T20:58:53.502Z,16.08
2023-04-08T21:01:21.572Z,16.00
2023-04-08T21:03:48.963Z,15.35
2023-04-08T21:06:17.183Z,14.53
2023-04-08T21:08:44.093Z,15.40
2023-04-08T21:11:11.073Z,16.25
2023-04-08T21:13:37.878Z,15.98
2023-04-08T21:16:05.420Z,15.65
2023-04-08T21:18:32.482Z,15.10
2023-04-08T21:20:59.203Z,14.95
2023-04-08T21:23:25.982Z,14.95
2023-04-08T21:25:52.722Z,15.15
2023-04-08T21:28:19.424Z,16.00
2023-04-08T21:30:46.116Z,16.27
2023-04-08T21:33:13.506Z,16.35
2023-04-08T21:35:40.331Z,16.23
2023-04-08T21:38:07.552Z,15.95
2023-04-08T21:40:34.193Z,16.70
2023-04-08T21:43:00.849Z,16.73
2023-04-08T21:45:27.493Z,16.83
2023-04-08T21:47:55.135Z,16.70
2023-04-08T21:50:21.933Z,16.63
2023-04-08T21:52:48.564Z,16.98
2023-04-08T21:55:15.410Z,18.20
2023-04-08T21:57:42.615Z,17.27
2023-04-08T22:00:13.345Z,17.25
2023-04-08T22:02:42.933Z,16.70
2023-04-08T22:05:10.427Z,17.27
2023-04-08T22:07:37.836Z,16.50
2023-04-08T22:10:04.782Z,17.20
2023-04-08T22:12:31.499Z,17.95
2023-04-08T22:14:58.222Z,16.70
2023-04-08T22:17:25.158Z,18.48
2023-04-08T22:19:51.877Z,17.00
2023-04-08T22:22:18.638Z,17.10
2023-04-08T22:24:45.381Z,17.88
2023-04-08T22:27:12.158Z,17.30
2023-04-08T22:29:38.803Z,18.27
2023-04-08T22:32:05.956Z,17.50
2023-04-08T22:34:32.557Z,18.35
2023-04-08T22:36:59.197Z,18.20
2023-04-08T22:39:26.806Z,17.85
2023-04-08T22:41:53.657Z,18.10
2023-04-08T22:44:20.477Z,17.53
2023-04-08T22:46:47.124Z,17.33
2023-04-08T22:49:13.761Z,18.42
2023-04-08T22:51:40.833Z,18.17
2023-04-08T22:54:07.901Z,19.27
2023-04-08T22:56:34.527Z,21.27
2023-04-08T22:59:01.174Z,18.70
2023-04-08T23:01:27.908Z,19.20
2023-04-08T23:03:54.623Z,17.35
2023-04-08T23:06:21.294Z,17.95
2023-04-08T23:08:47.985Z,17.10
2023-04-08T23:11:14.672Z,17.05
2023-04-08T23:13:41.384Z,17.73
2023-04-08T23:16:09.805Z,16.95
2023-04-08T23:18:36.511Z,17.08
2023-04-08T23:21:03.920Z,17.30
2023-04-08T23:23:30.658Z,16.27
2023-04-08T23:25:57.303Z,16.30
2023-04-08T23:28:23.963Z,16.00
2023-04-08T23:30:50.657Z,15.45
2023-04-08T23:33:17.365Z,14.70
2023-04-08T23:35:44.146Z,15.05
2023-04-08T23:38:10.952Z,15.38
2023-04-08T23:40:37.590Z,15.38
2023-04-08T23:43:04.322Z,15.82
2023-04-08T23:45:30.960Z,14.87
2023-04-08T23:47:57.624Z,15.55
2023-04-08T23:50:24.328Z,15.05
2023-04-08T23:52:51.211Z,15.07
2023-04-08T23:55:17.867Z,15.15
2023-04-08T23:57:44.607Z,14.50
